Flight Track Log - Related Links

Times and Time Zones

All times are in EDT time to prevent confusion due to time zone crossing. See the SKW6492 flight status page for this flight to view local times or setup timezone preferences in your user account.

Time Position Orientation Groundspeed Altitude Reporting Facility
EDT Latitude Longitude Course Direction KTS MPH feet Rate Location/Type
Mon 04:16:05 PM 30.1531 -97.7494 291° West 232 267 5,100  Level Houston Center
Mon 04:17:07 PM 30.1933 -97.8189 304° West 251 289 8,100 3,000 Climbing Houston Center
Mon 04:18:00 PM 30.5043 -97.9130 291° West  Level FlightAware Approximate
Mon 04:18:09 PM 30.2425 -97.8992 305° West 263 303 11,300  Level Houston Center
Mon 04:19:00 PM 30.5478 -98.0432 291° West  Level FlightAware Approximate
Mon 04:19:11 PM 30.2956 -97.9800 307° West 297 342 13,100  Level Houston Center
Mon 04:20:00 PM 30.5912 -98.1734 291° West  Level FlightAware Approximate
Mon 04:20:13 PM 30.3481 -98.0639 306° West 320 368 15,900  Level Houston Center
Mon 04:21:00 PM 30.6346 -98.3037 291° West  Level FlightAware Approximate
Mon 04:21:15 PM 30.4017 -98.1481 306° West 321 369 17,800  Level Houston Center
Mon 04:22:17 PM 30.4569 -98.2386 305° West 333 383 19,600 1,824 Climbing Houston Center
Mon 04:23:20 PM 30.5158 -98.3336 306° West 350 403 21,600 1,728 Climbing Houston Center
Mon 04:24:22 PM 30.5764 -98.4294 306° West 359 413 23,200 1,548 Climbing Houston Center
Mon 04:25:24 PM 30.6386 -98.5303 306° West 372 428 24,800 1,790 Climbing Houston Center
Mon 04:26:26 PM 30.7342 -98.6275 319° Northwest 393 452 26,900 1,597 Climbing Houston Center
Mon 04:27:28 PM 30.8314 -98.6939 330° Northwest 400 460 28,100 1,210 Climbing Houston Center
Mon 04:28:30 PM 30.9311 -98.7631 329° Northwest 409 471 29,400 1,210 Climbing Houston Center
Mon 04:29:32 PM 31.0314 -98.8333 329° Northwest 415 478 30,600 1,065 Climbing Houston Center
Mon 04:30:34 PM 31.1328 -98.9053 329° Northwest 420 483 31,600 1,065 Climbing Houston Center
Mon 04:31:36 PM 31.2364 -98.9764 330° Northwest 424 488 32,800 1,210 Climbing Houston Center
Mon 04:32:38 PM 31.3389 -99.0475 329° Northwest 423 487 34,100 1,213 Climbing Houston Center
Mon 04:33:10 PM 31.4067 -99.0953 329° Northwest 431 496 34,700 1,043 Climbing Fort Worth Center
Mon 04:34:10 PM 31.4892 -99.1553 328° Northwest 416 479 35,700 800 Climbing Fort Worth Center
Mon 04:35:10 PM 31.5886 -99.2253 329° Northwest 411 473 36,300 650 Climbing Fort Worth Center
Mon 04:36:10 PM 31.6878 -99.2981 328° Northwest 411 473 37,000 700 Climbing Fort Worth Center
Mon 04:37:10 PM 31.7889 -99.3686 329° Northwest 418 481 37,700 500 Climbing Fort Worth Center
Mon 04:38:10 PM 31.8922 -99.4394 330° Northwest 418 481 38,000 150 Climbing Fort Worth Center
Mon 04:39:10 PM 31.9911 -99.5125 328° Northwest 423 487 38,000  Level Fort Worth Center
Mon 04:40:10 PM 32.0964 -99.5861 329° Northwest 423 487 38,000  Level Fort Worth Center
Mon 04:41:10 PM 32.1975 -99.6572 329° Northwest 423 487 38,000  Level Fort Worth Center
Mon 04:42:10 PM 32.2983 -99.7336 327° Northwest 423 487 38,000  Level Fort Worth Center
Mon 04:43:10 PM 32.4033 -99.8075 329° Northwest 423 487 38,000  Level Fort Worth Center
Mon 04:44:10 PM 32.5144 -99.8894 328° Northwest 423 487 38,000  Level Fort Worth Center
Mon 04:45:10 PM 32.6322 -99.9567 334° Northwest 429 494 38,000  Level Fort Worth Center
Mon 04:46:10 PM 32.7372 -100.0264 331° Northwest 439 505 38,000  Level Fort Worth Center
Mon 04:47:10 PM 32.8442 -100.1011 330° Northwest 439 505 38,000  Level Fort Worth Center
Mon 04:48:10 PM 32.9511 -100.1689 332° Northwest 439 505 38,000  Level Fort Worth Center
Mon 04:49:10 PM 33.0583 -100.2364 332° Northwest 434 499 38,000  Level Fort Worth Center
Mon 04:50:10 PM 33.1672 -100.3094 331° Northwest 434 499 38,000  Level Fort Worth Center
Mon 04:51:11 PM 33.2761 -100.3800 332° Northwest 434 499 38,000  Level Fort Worth Center
Mon 04:52:10 PM 33.3850 -100.4511 331° Northwest 434 499 38,000  Level Fort Worth Center
Mon 04:53:10 PM 33.4733 -100.5089 331° Northwest 434 499 38,000  Level Fort Worth Center
Mon 04:54:10 PM 33.5925 -100.5853 332° Northwest 434 499 38,000  Level Fort Worth Center
Mon 04:55:10 PM 33.7014 -100.6592 331° Northwest 434 499 38,000  Level Fort Worth Center
Mon 04:56:10 PM 33.8119 -100.7333 331° Northwest 445 512 38,000  Level Fort Worth Center
Mon 04:57:10 PM 33.9228 -100.8100 330° Northwest 456 525 38,000  Level Fort Worth Center
Mon 04:59:01 PM 34.1317 -100.9436 332° Northwest 454 522 38,000  Level Albuquerque Center
Mon 05:00:03 PM 34.2419 -101.0186 331° Northwest 456 525 38,000  Level Albuquerque Center
Mon 05:01:05 PM 34.3536 -101.0936 331° Northwest 458 527 38,000  Level Albuquerque Center
Mon 05:02:06 PM 34.4642 -101.1694 331° Northwest 457 526 38,000  Level Albuquerque Center
Mon 05:03:08 PM 34.5964 -101.2594 331° Northwest 456 525 38,000  Level Albuquerque Center
Mon 05:04:10 PM 34.7067 -101.3342 331° Northwest 454 522 38,000  Level Albuquerque Center
Mon 05:05:12 PM 34.8156 -101.4083 331° Northwest 450 518 38,000  Level Albuquerque Center
Mon 05:06:14 PM 34.9247 -101.4833 331° Northwest 451 519 38,000  Level Albuquerque Center
Mon 05:07:16 PM 35.0336 -101.5575 331° Northwest 455 524 38,000  Level Albuquerque Center
Mon 05:08:17 PM 35.1444 -101.6333 331° Northwest 456 525 38,000  Level Albuquerque Center
Mon 05:09:19 PM 35.2739 -101.7153 333° Northwest 455 524 38,000  Level Albuquerque Center
Mon 05:10:21 PM 35.3883 -101.7672 340° North 441 507 38,000  Level Albuquerque Center
Mon 05:11:23 PM 35.5058 -101.8219 339° North 440 506 38,000  Level Albuquerque Center
Mon 05:12:25 PM 35.6117 -101.8719 339° North 441 507 38,000  Level Albuquerque Center
Mon 05:13:27 PM 35.7494 -101.9361 339° North 442 509 38,000  Level Albuquerque Center
Mon 05:14:29 PM 35.8658 -101.9906 339° North 444 511 38,000  Level Albuquerque Center
Mon 05:15:30 PM 35.9806 -102.0436 339° North 443 510 38,000  Level Albuquerque Center
Mon 05:16:32 PM 36.0961 -102.0975 339° North 443 510 38,000  Level Albuquerque Center
Mon 05:17:34 PM 36.2117 -102.1517 339° North 443 510 38,000  Level Albuquerque Center
Mon 05:18:36 PM 36.3283 -102.2056 340° North 447 514 38,000  Level Albuquerque Center
Mon 05:19:37 PM 36.4442 -102.2611 339° North 446 513 38,000  Level Albuquerque Center
Mon 05:20:39 PM 36.5825 -102.3272 339° North 444 511 38,000  Level Albuquerque Center
Mon 05:21:41 PM 36.6997 -102.3828 339° North 449 517 38,000  Level Albuquerque Center
Mon 05:22:43 PM 36.8164 -102.4397 339° North 450 518 38,000  Level Albuquerque Center
Mon 05:23:44 PM 36.9331 -102.4950 339° North 449 517 38,000 -341 Level Albuquerque Center
Mon 05:24:46 PM 37.0633 -102.5581 339° North 449 517 37,300 -823 Descending Albuquerque Center
Mon 05:25:48 PM 37.1733 -102.6117 339° North 446 513 36,300 -634 Descending Albuquerque Center
Mon 05:26:49 PM 37.2853 -102.6653 339° North 447 514 36,000 -146 Descending Albuquerque Center
Mon 05:27:51 PM 37.4125 -102.7275 339° North 443 510 36,000 -52 Level Albuquerque Center
Mon 05:28:44 PM 37.5025 -102.7706 339° North 439 505 35,900 -678 Descending Denver Center
Mon 05:29:46 PM 37.6364 -102.8153 345° North 445 512 34,700 -919 Descending Denver Center
Mon 05:30:48 PM 37.7503 -102.8517 346° North 444 511 34,000 -339 Descending Denver Center
Mon 05:31:50 PM 37.8769 -102.9233 336° Northwest 450 518 34,000  Level Denver Center
Mon 05:32:51 PM 37.9792 -103.0078 327° Northwest 457 526 34,000  Level Denver Center
Mon 05:33:53 PM 38.0992 -103.1117 326° Northwest 453 521 34,000  Level Denver Center
Mon 05:34:55 PM 38.1958 -103.1953 326° Northwest 458 527 34,000  Level Denver Center
Mon 05:35:57 PM 38.3144 -103.2956 326° Northwest 460 529 34,000 -574 Level Denver Center
Mon 05:37:11 PM 38.4169 -103.3844 326° Northwest 446 513 32,700 -1,489 Descending Denver Center
Mon 05:38:14 PM 38.5319 -103.4836 326° Northwest 409 471 30,600 -1,645 Descending Denver Center
Mon 05:39:15 PM 38.6186 -103.5578 326° Northwest 395 455 29,300 -1,415 Descending Denver Center
Mon 05:40:17 PM 38.7167 -103.6442 326° Northwest 385 443 27,700 -1,440 Descending Denver Center
Mon 05:41:20 PM 38.8000 -103.7167 326° Northwest 379 436 26,300 -1,452 Descending Denver Center
Mon 05:42:21 PM 38.8942 -103.8011 325° Northwest 373 429 24,700 -1,512 Descending Denver Center
Mon 05:43:23 PM 38.9728 -103.8692 326° Northwest 361 415 23,200 -1,548 Descending Denver Center
Mon 05:44:25 PM 39.0606 -103.9483 325° Northwest 348 400 21,500 -1,500 Descending Denver Center
Mon 05:45:27 PM 39.1342 -104.0125 326° Northwest 341 392 20,100 -1,452 Descending Denver Center
Mon 05:46:29 PM 39.2186 -104.0831 327° Northwest 332 382 18,500 -1,548 Descending Denver Center
Mon 05:47:31 PM 39.2719 -104.1786 306° West 320 368 16,900 -1,597 Descending Denver Center
Mon 05:48:33 PM 39.2964 -104.2842 287° West 307 353 15,200 -1,403 Descending Denver Center
Mon 05:49:35 PM 39.3211 -104.3917 287° West 295 339 14,000 -726 Descending Denver Center
Mon 05:50:37 PM 39.3408 -104.4814 286° West 265 305 13,700 -677 Descending Denver Center
Mon 05:51:39 PM 39.3714 -104.5653 295° West 261 300 12,600 -1,065 Descending Denver Center
Mon 05:52:41 PM 39.4258 -104.6300 317° Northwest 259 298 11,500 -926 Descending Denver Center
Mon 05:53:55 PM 39.4911 -104.6658 337° Northwest 255 293 10,500 -662 Descending Denver Center
Mon 05:54:57 PM 39.5761 -104.6636 North 248 285 10,000 -484 Descending Denver Center

Login

Don't have an account? Register now (free) for customized features, flight alerts, and more!